Time;durP1;ratioP1;P1;durP2;ratioP2;P2;SDS_P1;SDS_P2;PMS_P1;PMS_P2;Temp;Humidity;BMP_temperature;BMP_pressure;BME280_temperature;BME280_humidity;BME280_pressure;Samples;Min_cycle;Max_cycle;Signal;HPM_P1;HPM_P2
2022/01/24 00:01:52;;;;;;;;;40.25;33.00;;;;;5.79;60.09;102756.50;5082628;28;45348;-77
2022/01/24 00:04:32;;;;;;;;;46.00;33.75;;;;;5.74;59.66;102750.59;5079321;28;45616;-79
2022/01/24 00:06:57;;;;;;;;;51.75;37.25;;;;;5.71;60.01;102748.13;5060693;28;45370;-75
2022/01/24 00:09:23;;;;;;;;;49.75;36.75;;;;;5.68;59.80;102746.53;5054152;28;45615;-74
2022/01/24 00:27:17;;;;;;;;;40.00;33.75;;;;;5.56;60.14;102732.06;5076169;28;45348;-74
2022/01/24 00:29:42;;;;;;;;;46.00;34.00;;;;;5.55;60.59;102729.47;5076464;28;45415;-76
2022/01/24 00:32:08;;;;;;;;;47.00;36.00;;;;;5.54;60.69;102736.78;5077135;28;45482;-76
2022/01/24 00:34:34;;;;;;;;;40.00;34.50;;;;;5.48;60.97;102723.69;5075833;28;45297;-77
2022/01/24 00:37:03;;;;;;;;;43.00;34.50;;;;;5.50;60.80;102731.72;5076321;28;45481;-75
2022/01/24 00:39:28;;;;;;;;;47.50;36.25;;;;;5.48;60.62;102729.97;5076579;28;45575;-76
2022/01/24 00:47:15;;;;;;;;;37.75;34.75;;;;;5.43;61.16;102724.06;5061435;28;45429;-78
2022/01/24 00:54:53;;;;;;;;;38.75;29.75;;;;;5.39;60.57;102719.88;5058700;28;45558;-74
2022/01/24 00:57:20;;;;;;;;;46.50;34.75;;;;;5.37;60.95;102719.09;5058244;28;46237;-75
2022/01/24 00:59:46;;;;;;;;;34.50;33.50;;;;;5.35;60.87;102714.81;5040804;28;45337;-75
2022/01/24 01:02:12;;;;;;;;;46.25;34.75;;;;;5.31;60.81;102719.63;5059222;28;45844;-74
2022/01/24 01:07:09;;;;;;;;;42.75;35.00;;;;;5.24;60.73;102713.81;5058657;28;46283;-74
2022/01/24 01:18:14;;;;;;;;;45.75;35.75;;;;;5.18;61.29;102713.44;5079443;28;45894;-76
2022/01/24 01:23:23;;;;;;;;;46.00;35.00;;;;;5.11;61.37;102726.69;5080113;28;45465;-76
2022/01/24 01:25:50;;;;;;;;;44.50;37.50;;;;;5.05;62.15;102710.88;5094997;27;46171;-76
2022/01/24 01:28:17;;;;;;;;;44.00;33.25;;;;;5.03;61.14;102713.72;5078853;28;45549;-75
2022/01/24 01:30:46;;;;;;;;;38.50;30.00;;;;;5.01;61.29;102721.09;5078519;28;45693;-75
2022/01/24 01:33:33;;;;;;;;;40.75;32.75;;;;;4.97;61.90;102714.22;5060180;28;45780;-75
2022/01/24 01:36:23;;;;;;;;;50.50;37.75;;;;;4.85;62.58;102699.75;5077171;28;45840;-74
2022/01/24 01:39:17;;;;;;;;;39.75;35.00;;;;;4.88;62.17;102714.91;5077741;28;45672;-75
2022/01/24 01:55:25;;;;;;;;;27.75;20.75;;;;;5.02;62.64;102711.13;5078640;28;45406;-75
2022/01/24 01:57:51;;;;;;;;;37.00;33.25;;;;;5.04;62.34;102711.84;5059765;28;45820;-74
2022/01/24 02:00:17;;;;;;;;;38.75;31.50;;;;;5.04;61.66;102709.97;5060095;28;47155;-74
2022/01/24 02:02:42;;;;;;;;;31.25;30.75;;;;;5.05;61.70;102710.88;5076510;28;45356;-75
2022/01/24 02:05:09;;;;;;;;;37.50;31.75;;;;;5.08;62.07;102726.94;5077457;28;45694;-72
2022/01/24 02:07:52;;;;;;;;;42.25;31.75;;;;;5.10;61.93;102717.66;5077982;28;45709;-74
2022/01/24 02:10:20;;;;;;;;;36.50;27.25;;;;;5.12;61.80;102712.97;5077800;28;45489;-74
2022/01/24 02:12:51;;;;;;;;;35.25;27.00;;;;;5.13;61.11;102713.81;5078083;28;45550;-73
2022/01/24 02:21:05;;;;;;;;;30.50;25.25;;;;;5.21;61.26;102710.47;5059377;28;45917;-76
2022/01/24 02:25:59;;;;;;;;;40.75;35.00;;;;;5.18;61.14;102689.84;5077316;28;45461;-74
2022/01/24 02:28:29;;;;;;;;;41.00;28.00;;;;;5.16;61.59;102699.97;5077974;28;45355;-74
2022/01/24 02:33:24;;;;;;;;;33.25;26.75;;;;;5.22;61.72;102701.31;5077564;28;45410;-73
2022/01/24 02:35:50;;;;;;;;;40.25;32.25;;;;;5.24;61.30;102689.34;5075395;28;45536;-74
2022/01/24 02:45:59;;;;;;;;;29.00;25.25;;;;;5.36;60.86;102692.91;5057110;28;45514;-74
2022/01/24 02:49:10;;;;;;;;;35.00;29.25;;;;;5.31;60.45;102678.81;5063563;28;45631;-74
2022/01/24 02:51:48;;;;;;;;;35.25;30.50;;;;;5.34;61.00;102684.00;5056060;28;46914;-77
2022/01/24 02:54:23;;;;;;;;;38.50;33.75;;;;;5.35;60.71;102676.72;5039117;28;44766;-73
2022/01/24 02:56:55;;;;;;;;;36.75;32.50;;;;;5.32;60.08;102677.81;5071630;28;45433;-74
2022/01/24 02:59:20;;;;;;;;;34.25;29.75;;;;;5.33;60.66;102676.84;5077475;28;45531;-75
2022/01/24 03:01:46;;;;;;;;;33.25;27.00;;;;;5.32;60.37;102687.84;5077663;28;45329;-74
2022/01/24 03:04:18;;;;;;;;;32.00;29.00;;;;;5.28;60.11;102692.66;5077303;28;45741;-74
2022/01/24 03:06:44;;;;;;;;;33.75;31.25;;;;;5.24;60.92;102683.91;5075423;28;45387;-74
2022/01/24 03:09:13;;;;;;;;;36.00;31.25;;;;;5.19;60.78;102686.13;5076641;28;45451;-75
2022/01/24 03:14:15;;;;;;;;;35.50;29.25;;;;;5.16;60.45;102680.06;5077164;28;45897;-74
2022/01/24 03:16:40;;;;;;;;;39.50;31.50;;;;;5.12;60.73;102674.88;5076847;28;45638;-74
2022/01/24 03:19:08;;;;;;;;;41.00;34.25;;;;;5.08;60.56;102670.69;5058797;28;46108;-74
2022/01/24 03:21:34;;;;;;;;;39.50;32.00;;;;;5.03;61.37;102666.59;5076935;28;45481;-75
2022/01/24 03:24:03;;;;;;;;;37.00;26.50;;;;;4.96;60.96;102666.25;5076335;28;45401;-75
2022/01/24 03:26:31;;;;;;;;;34.25;30.25;;;;;4.97;60.36;102670.72;5077841;28;45765;-76
2022/01/24 03:28:57;;;;;;;;;40.00;30.50;;;;;4.93;60.94;102663.78;5058735;28;46531;-74
2022/01/24 03:31:24;;;;;;;;;37.25;29.50;;;;;4.86;61.31;102660.66;5077983;28;46259;-75
2022/01/24 03:33:50;;;;;;;;;40.50;30.75;;;;;4.81;61.75;102659.34;5059030;28;45682;-75
2022/01/24 03:36:16;;;;;;;;;36.50;32.25;;;;;4.80;61.98;102665.75;5077486;28;44949;-75
2022/01/24 03:38:42;;;;;;;;;37.25;32.50;;;;;4.73;61.72;102658.09;5077276;28;45744;-73
2022/01/24 03:41:07;;;;;;;;;34.00;31.25;;;;;4.68;61.86;102657.59;5076587;28;45423;-74
2022/01/24 03:43:33;;;;;;;;;45.00;34.75;;;;;4.71;62.40;102651.91;5057853;28;45388;-76
2022/01/24 03:48:39;;;;;;;;;37.50;33.50;;;;;4.67;61.83;102653.16;5080237;28;45702;-77
2022/01/24 03:51:13;;;;;;;;;40.50;29.25;;;;;4.70;61.52;102654.75;5075381;28;45409;-74
2022/01/24 03:53:40;;;;;;;;;34.25;29.50;;;;;4.70;62.52;102658.34;5056553;28;45441;-73
2022/01/24 03:56:06;;;;;;;;;41.00;32.00;;;;;4.68;61.75;102654.88;5077277;28;45410;-78
2022/01/24 03:58:32;;;;;;;;;36.50;31.50;;;;;4.66;61.81;102656.84;5080109;28;45361;-74
2022/01/24 04:00:59;;;;;;;;;50.50;36.75;;;;;4.63;61.43;102657.09;5075893;28;46098;-72
2022/01/24 04:03:24;;;;;;;;;47.00;35.50;;;;;4.58;61.99;102645.72;5075741;28;45729;-74
2022/01/24 04:05:50;;;;;;;;;40.25;30.25;;;;;4.55;62.14;102648.69;5059094;28;45390;-76
2022/01/24 04:08:16;;;;;;;;;42.75;37.00;;;;;4.52;62.83;102644.38;5077789;28;45763;-77
2022/01/24 04:10:42;;;;;;;;;46.50;35.50;;;;;4.52;61.68;102638.94;5079014;28;46533;-77
2022/01/24 04:13:24;;;;;;;;;35.50;28.50;;;;;4.49;62.03;102638.31;5079445;28;45550;-78
2022/01/24 04:16:23;;;;;;;;;49.25;35.00;;;;;4.44;62.07;102635.09;5062858;28;45418;-76
2022/01/24 04:18:58;;;;;;;;;51.75;37.00;;;;;4.42;63.09;102632.50;5078029;28;45535;-75
2022/01/24 04:21:33;;;;;;;;;44.25;36.00;;;;;4.35;63.07;102626.69;5080253;28;45726;-75
2022/01/24 04:24:17;;;;;;;;;42.00;34.00;;;;;4.36;62.34;102639.28;5082788;28;45690;-79
2022/01/24 04:26:43;;;;;;;;;42.00;35.00;;;;;4.33;63.60;102634.09;5064436;28;45473;-79
2022/01/24 04:29:11;;;;;;;;;43.75;34.50;;;;;4.30;63.16;102631.63;5066685;28;46064;-77
2022/01/24 04:31:46;;;;;;;;;37.50;31.00;;;;;4.32;62.21;102632.34;5083782;28;45457;-79
2022/01/24 04:34:14;;;;;;;;;41.25;35.00;;;;;4.30;63.21;102633.50;5083567;28;45745;-78
2022/01/24 04:36:39;;;;;;;;;35.50;34.00;;;;;4.31;62.58;102638.78;5082925;28;45359;-76
2022/01/24 04:39:05;;;;;;;;;41.75;32.00;;;;;4.31;62.62;102641.50;5082473;28;45470;-77
2022/01/24 04:41:36;;;;;;;;;46.00;38.00;;;;;4.32;63.27;102645.94;5084132;28;45495;-78
2022/01/24 04:46:53;;;;;;;;;42.00;34.00;;;;;4.31;62.65;102632.47;5082996;28;45418;-79
2022/01/24 04:54:51;;;;;;;;;37.00;34.75;;;;;4.40;62.41;102653.47;5083235;28;45469;-76
2022/01/24 04:57:22;;;;;;;;;37.50;34.50;;;;;4.38;63.23;102640.00;5083116;28;45366;-78
2022/01/24 04:59:50;;;;;;;;;45.00;34.75;;;;;4.40;62.29;102638.06;5081511;28;45421;-76
2022/01/24 05:02:17;;;;;;;;;34.50;32.00;;;;;4.43;62.88;102642.38;5079436;28;46347;-76
2022/01/24 05:04:43;;;;;;;;;37.00;31.25;;;;;4.46;61.66;102647.59;5079452;28;45594;-74
2022/01/24 05:07:09;;;;;;;;;38.50;33.00;;;;;4.46;61.55;102641.28;5079998;28;45753;-77
2022/01/24 05:09:40;;;;;;;;;41.00;31.25;;;;;4.32;61.97;102626.06;5081819;28;45319;-77
2022/01/24 05:12:19;;;;;;;;;45.00;30.00;;;;;4.48;62.34;102642.03;5081254;28;46058;-76
2022/01/24 05:25:40;;;;;;;;;44.50;35.00;;;;;4.44;62.96;102641.38;5080658;28;45358;-77
2022/01/24 05:28:05;;;;;;;;;31.00;29.50;;;;;4.44;61.68;102645.97;5081560;28;45620;-78
2022/01/24 05:30:31;;;;;;;;;38.50;30.00;;;;;4.50;61.43;102645.47;5082173;28;45615;-78
2022/01/24 05:32:56;;;;;;;;;42.00;34.75;;;;;4.46;62.25;102633.13;5082896;28;45772;-78
2022/01/24 05:35:22;;;;;;;;;41.00;32.25;;;;;4.52;61.74;102632.63;5081783;28;45436;-79
2022/01/24 05:37:47;;;;;;;;;48.75;37.25;;;;;4.52;61.68;102638.94;5083091;28;45355;-77
2022/01/24 05:40:13;;;;;;;;;42.25;34.25;;;;;4.55;61.54;102632.38;5063216;28;45866;-77
2022/01/24 05:42:39;;;;;;;;;46.25;35.50;;;;;4.56;61.49;102636.84;5080933;28;45400;-76
2022/01/24 05:45:05;;;;;;;;;32.25;28.50;;;;;4.59;62.60;102633.88;5080341;28;45354;-78
2022/01/24 05:47:31;;;;;;;;;43.75;33.00;;;;;4.56;62.19;102637.69;5080448;28;45422;-77
2022/01/24 05:49:56;;;;;;;;;44.00;36.50;;;;;4.55;61.97;102629.66;5081282;28;45402;-75
2022/01/24 05:52:25;;;;;;;;;40.50;34.25;;;;;4.59;62.40;102633.88;5061790;28;47059;-77
2022/01/24 05:54:50;;;;;;;;;45.00;35.25;;;;;4.58;61.21;102623.97;5080200;28;45486;-78
2022/01/24 05:57:16;;;;;;;;;53.50;35.25;;;;;4.58;60.83;102629.41;5061732;28;45752;-77
2022/01/24 05:59:41;;;;;;;;;38.25;29.50;;;;;4.53;61.45;102623.50;5080161;28;45666;-76
2022/01/24 06:02:13;;;;;;;;;42.00;34.00;;;;;4.57;61.42;102635.84;5082910;28;45598;-79
2022/01/24 06:04:39;;;;;;;;;51.25;38.50;;;;;4.56;61.59;102628.69;5080222;28;44786;-75
2022/01/24 06:07:07;;;;;;;;;32.50;28.50;;;;;4.48;62.31;102615.72;5072975;28;45740;-76
2022/01/24 06:09:36;;;;;;;;;39.00;35.00;;;;;4.53;62.23;102628.94;5057160;28;45517;-73
2022/01/24 06:12:01;;;;;;;;;38.50;32.25;;;;;4.54;61.33;102631.53;5056658;28;46119;-74
2022/01/24 06:14:27;;;;;;;;;44.25;35.50;;;;;4.54;62.51;102633.38;5055734;28;45742;-76
2022/01/24 06:16:52;;;;;;;;;35.25;29.00;;;;;4.53;62.30;102631.66;5071416;28;45568;-73
2022/01/24 06:19:18;;;;;;;;;32.50;30.25;;;;;4.50;62.39;102645.47;5065939;28;45512;-72
2022/01/24 06:21:45;;;;;;;;;38.75;35.00;;;;;4.45;62.70;102642.28;5072932;28;46163;-72
2022/01/24 06:24:12;;;;;;;;;40.00;34.00;;;;;4.45;62.60;102647.72;5074073;28;45808;-72
2022/01/24 06:26:38;;;;;;;;;41.00;35.50;;;;;4.40;61.22;102645.31;5074424;28;45853;-73
2022/01/24 06:29:04;;;;;;;;;41.25;30.75;;;;;4.37;61.33;102651.00;5074659;28;45458;-74
2022/01/24 06:31:30;;;;;;;;;53.00;36.25;;;;;4.29;61.97;102629.88;5073824;28;46233;-73
2022/01/24 06:33:55;;;;;;;;;41.50;31.00;;;;;4.31;62.52;102646.06;5073577;28;45553;-72
2022/01/24 06:36:21;;;;;;;;;45.50;32.00;;;;;4.25;62.07;102647.41;5062270;28;45688;-73
2022/01/24 06:38:46;;;;;;;;;45.00;36.75;;;;;4.25;62.14;102652.84;5087426;27;45724;-72
2022/01/24 06:41:17;;;;;;;;;45.00;32.75;;;;;4.23;62.79;102660.25;5075934;28;46103;-79
2022/01/24 06:43:43;;;;;;;;;47.75;36.00;;;;;4.26;62.22;102661.88;5078225;28;45562;-79
2022/01/24 06:46:11;;;;;;;;;42.25;34.50;;;;;4.26;62.48;102654.56;5078305;28;45569;-78
2022/01/24 06:48:39;;;;;;;;;41.50;32.00;;;;;4.24;62.95;102657.41;5078910;28;45393;-79
2022/01/24 06:51:10;;;;;;;;;44.50;35.50;;;;;4.25;63.01;102655.53;5093035;27;46466;-78
2022/01/24 06:53:39;;;;;;;;;43.75;35.50;;;;;4.22;62.19;102642.22;5064107;28;45843;-79
2022/01/24 06:56:08;;;;;;;;;43.25;37.00;;;;;4.23;62.71;102652.94;5077576;28;45480;-80
2022/01/24 06:58:34;;;;;;;;;48.25;35.25;;;;;4.24;63.11;102646.53;5067798;28;46791;-77
2022/01/24 07:01:00;;;;;;;;;46.25;35.50;;;;;4.27;62.62;102650.00;5075891;28;46633;-77
2022/01/24 07:03:26;;;;;;;;;42.25;35.50;;;;;4.27;62.17;102648.16;5059720;28;45486;-75
2022/01/24 07:05:52;;;;;;;;;37.25;31.25;;;;;4.26;62.56;102660.00;5076177;28;45578;-77
2022/01/24 07:08:18;;;;;;;;;43.00;34.50;;;;;4.23;62.54;102649.38;5081235;28;45438;-78
2022/01/24 07:10:43;;;;;;;;;38.25;34.50;;;;;4.26;62.19;102660.00;5074729;28;45849;-71
2022/01/24 07:13:09;;;;;;;;;50.50;35.25;;;;;4.24;62.57;102662.84;5054340;28;45609;-71
2022/01/24 07:15:41;;;;;;;;;40.00;34.25;;;;;4.25;62.31;102663.69;5071184;28;45783;-77
2022/01/24 07:20:50;;;;;;;;;39.25;34.00;;;;;4.23;62.03;102665.69;5071983;28;45454;-78
2022/01/24 07:23:16;;;;;;;;;44.50;37.25;;;;;4.20;62.70;102658.63;5069449;28;45497;-75
2022/01/24 07:25:41;;;;;;;;;42.25;36.50;;;;;4.19;63.31;102653.31;5078930;28;45680;-77
2022/01/24 07:28:07;;;;;;;;;39.00;34.00;;;;;4.23;62.29;102660.25;5056072;28;45525;-73
2022/01/24 07:30:32;;;;;;;;;42.75;35.25;;;;;4.21;61.68;102662.22;5051091;28;46004;-72
2022/01/24 07:32:57;;;;;;;;;43.50;36.25;;;;;4.15;62.47;102660.84;5051264;28;45873;-72
2022/01/24 07:35:23;;;;;;;;;41.50;34.50;;;;;4.21;62.60;102659.50;5052204;28;45706;-73
2022/01/24 07:37:48;;;;;;;;;39.50;36.50;;;;;4.23;63.33;102665.69;5070694;28;45450;-73
2022/01/24 07:40:14;;;;;;;;;50.25;35.00;;;;;4.26;62.72;102664.59;5071727;28;46188;-73
2022/01/24 07:42:56;;;;;;;;;46.75;34.25;;;;;4.30;61.93;102663.38;5073225;28;45446;-73
2022/01/24 07:45:23;;;;;;;;;42.75;35.00;;;;;4.33;62.91;102658.53;5070812;28;45723;-72
2022/01/24 07:48:02;;;;;;;;;44.00;32.75;;;;;4.38;62.52;102669.03;5038255;28;46603;-81
2022/01/24 07:50:27;;;;;;;;;47.00;36.00;;;;;4.41;61.40;102666.94;5081815;28;45285;-74
2022/01/24 07:52:55;;;;;;;;;41.50;33.50;;;;;4.42;61.11;102660.53;5073891;28;45784;-71
2022/01/24 07:55:22;;;;;;;;;41.25;31.00;;;;;4.46;60.93;102668.44;5076009;28;45685;-73
2022/01/24 07:57:48;;;;;;;;;41.75;35.75;;;;;4.50;61.24;102669.94;5056382;28;47028;-73
2022/01/24 08:00:14;;;;;;;;;35.75;34.50;;;;;4.54;60.62;102672.28;5058662;28;45831;-75
2022/01/24 08:02:43;;;;;;;;;46.00;33.50;;;;;4.57;62.12;102669.31;5078404;28;45408;-74
2022/01/24 08:05:10;;;;;;;;;43.50;36.00;;;;;4.63;62.01;102676.13;5079611;28;45380;-74
2022/01/24 08:07:36;;;;;;;;;43.00;34.25;;;;;4.70;62.04;102668.34;5096702;27;46468;-73
2022/01/24 08:10:04;;;;;;;;;47.25;35.50;;;;;4.76;60.58;102663.28;5080381;28;46315;-73
2022/01/24 08:12:32;;;;;;;;;40.50;35.75;;;;;4.83;60.57;102673.66;5073855;28;45385;-75
2022/01/24 08:15:02;;;;;;;;;51.25;38.25;;;;;4.93;60.87;102680.09;5080228;28;45447;-73
2022/01/24 08:17:28;;;;;;;;;37.75;33.75;;;;;5.00;60.97;102678.63;5095935;27;46202;-74
2022/01/24 08:19:53;;;;;;;;;51.25;35.75;;;;;5.04;60.38;102671.06;5080714;28;46621;-74
2022/01/24 08:22:19;;;;;;;;;48.50;36.50;;;;;5.10;60.18;102679.59;5081864;28;45409;-73
2022/01/24 08:24:50;;;;;;;;;51.75;39.50;;;;;5.09;60.48;102669.69;5079489;28;45671;-79
2022/01/24 08:27:18;;;;;;;;;47.25;35.75;;;;;5.22;60.15;102685.00;5083229;28;45441;-77
2022/01/24 08:29:48;;;;;;;;;38.50;34.00;;;;;5.28;60.30;102689.94;5080825;27;45351;-74
2022/01/24 08:32:14;;;;;;;;;51.50;35.75;;;;;5.29;59.91;102681.66;5073199;28;45445;-74
2022/01/24 08:34:40;;;;;;;;;42.50;36.25;;;;;5.41;59.52;102696.09;5080486;28;45498;-77
2022/01/24 08:37:06;;;;;;;;;43.25;35.25;;;;;5.47;59.13;102694.75;5081436;28;44850;-72
2022/01/24 08:39:31;;;;;;;;;53.25;37.50;;;;;5.52;59.23;102691.63;5078452;28;45558;-73
2022/01/24 08:42:14;;;;;;;;;38.75;32.75;;;;;5.57;58.30;102692.97;5081579;28;45341;-73
2022/01/24 08:47:31;;;;;;;;;50.25;35.25;;;;;5.67;58.83;102698.50;5080694;27;45369;-74
2022/01/24 08:49:58;;;;;;;;;38.00;32.50;;;;;5.71;58.63;102694.53;5066748;28;46847;-72
2022/01/24 08:52:25;;;;;;;;;46.00;35.25;;;;;5.70;58.63;102692.81;5094291;27;45752;-73
2022/01/24 08:54:52;;;;;;;;;47.50;36.75;;;;;5.79;58.38;102697.50;5061583;28;45368;-73
2022/01/24 08:57:21;;;;;;;;;43.50;34.00;;;;;5.84;57.83;102697.97;5073555;28;45555;-72
2022/01/24 08:59:47;;;;;;;;;47.50;38.00;;;;;5.91;58.42;102689.28;5081092;28;45624;-73
2022/01/24 09:02:13;;;;;;;;;51.25;36.25;;;;;5.97;57.63;102699.66;5080050;27;45235;-72
2022/01/24 09:04:38;;;;;;;;;43.50;37.00;;;;;6.01;58.27;102703.88;5082807;27;45728;-74
2022/01/24 09:07:05;;;;;;;;;48.00;34.25;;;;;6.12;57.87;102705.69;5064998;28;45644;-76
2022/01/24 09:09:34;;;;;;;;;44.75;36.00;;;;;6.74;57.33;102701.22;5072751;28;45995;-74
2022/01/24 09:12:02;;;;;;;;;43.75;35.25;;;;;7.53;55.16;102703.25;5076310;28;45440;-72
2022/01/24 09:14:27;;;;;;;;;49.25;38.50;;;;;8.35;52.79;102708.44;5074413;28;45406;-73
2022/01/24 09:16:53;;;;;;;;;54.50;40.00;;;;;9.06;51.20;102699.81;5060127;28;45983;-74
2022/01/24 09:19:18;;;;;;;;;45.75;33.75;;;;;9.76;49.58;102699.25;5077222;28;45572;-73
2022/01/24 09:21:44;;;;;;;;;40.50;32.75;;;;;10.38;48.19;102691.09;5076570;28;45399;-73
2022/01/24 09:24:09;;;;;;;;;49.00;36.75;;;;;10.96;47.10;102702.47;5077717;28;46031;-73
2022/01/24 09:26:35;;;;;;;;;44.75;35.00;;;;;11.51;46.09;102697.53;5077157;28;45436;-73
2022/01/24 09:29:01;;;;;;;;;24.50;19.75;;;;;11.99;44.55;102701.44;5071031;28;46230;-71
2022/01/24 09:31:27;;;;;;;;;46.50;36.00;;;;;12.36;43.15;102694.56;5068881;28;45829;-73
2022/01/24 09:33:53;;;;;;;;;47.75;39.00;;;;;12.76;42.36;102695.56;5043594;28;45815;-74
2022/01/24 09:36:19;;;;;;;;;38.00;32.00;;;;;13.14;41.74;102698.53;5058585;28;46107;-74
2022/01/24 09:38:45;;;;;;;;;48.00;36.25;;;;;13.54;41.44;102707.69;5076224;28;45807;-74
2022/01/24 09:41:13;;;;;;;;;44.75;36.00;;;;;13.86;40.01;102699.41;5058194;28;45517;-75
2022/01/24 09:43:40;;;;;;;;;42.00;33.33;;;;;14.21;39.00;102702.63;5076319;28;45505;-72
2022/01/24 09:46:08;;;;;;;;;47.50;38.00;;;;;14.50;38.59;102693.53;5056756;28;46017;-72
2022/01/24 09:48:33;;;;;;;;;40.00;32.00;;;;;14.74;38.46;102708.19;5063420;28;46389;-72
2022/01/24 09:51:02;;;;;;;;;43.33;32.33;;;;;14.92;37.91;102697.63;5055767;28;45493;-75
2022/01/24 09:53:28;;;;;;;;;35.67;31.67;;;;;15.04;37.57;102695.25;5057493;28;45525;-76
2022/01/24 09:55:53;;;;;;;;;47.00;36.33;;;;;15.11;37.49;102695.34;5038249;28;45985;-72
2022/01/24 09:58:20;;;;;;;;;38.00;32.33;;;;;15.16;36.65;102699.25;5056630;28;45754;-74
2022/01/24 10:00:46;;;;;;;;;41.33;34.67;;;;;15.22;36.37;102699.53;5056359;28;45555;-73
2022/01/24 10:03:13;;;;;;;;;44.67;33.00;;;;;15.36;36.27;102696.75;5064793;28;45532;-76
2022/01/24 10:05:42;;;;;;;;;45.33;35.33;;;;;15.49;36.31;102687.78;5058077;28;45741;-73
2022/01/24 10:08:14;;;;;;;;;47.67;33.67;;;;;15.64;36.16;102684.97;5054789;28;47621;-73
2022/01/24 10:10:51;;;;;;;;;43.00;34.33;;;;;15.92;35.54;102687.00;5038040;28;45485;-73
2022/01/24 10:16:31;;;;;;;;;46.33;35.33;;;;;16.00;35.06;102689.66;5068388;28;45363;-74
2022/01/24 10:19:20;;;;;;;;;49.00;38.67;;;;;16.11;34.94;102695.69;5075403;28;46544;-76
2022/01/24 10:21:50;;;;;;;;;44.33;35.33;;;;;15.96;34.88;102682.78;5076066;28;45807;-75
2022/01/24 10:24:35;;;;;;;;;34.33;29.00;;;;;16.08;35.82;102690.53;5077392;27;45786;-75
2022/01/24 10:27:20;;;;;;;;;38.33;33.00;;;;;16.11;34.90;102688.25;5075330;28;46065;-74
2022/01/24 10:30:00;;;;;;;;;41.00;36.33;;;;;16.16;35.17;102679.34;5076903;27;46468;-74
2022/01/24 10:32:27;;;;;;;;;40.00;33.67;;;;;16.23;34.41;102691.34;5059076;28;45407;-74
2022/01/24 10:34:52;;;;;;;;;40.33;35.33;;;;;16.14;33.99;102682.31;5076976;28;45826;-75
2022/01/24 10:37:21;;;;;;;;;35.33;34.00;;;;;16.00;34.34;102688.75;5058591;28;46407;-75
2022/01/24 10:39:56;;;;;;;;;45.33;37.00;;;;;15.98;34.78;102683.44;5058795;28;47349;-75
2022/01/24 10:44:58;;;;;;;;;52.00;36.67;;;;;15.71;35.10;102673.97;5075789;28;45433;-74
2022/01/24 10:47:28;;;;;;;;;39.33;34.33;;;;;15.45;35.20;102672.63;5054613;28;45523;-76
2022/01/24 10:49:55;;;;;;;;;45.00;35.00;;;;;15.16;35.65;102673.50;5075303;28;46146;-74
2022/01/24 10:52:24;;;;;;;;;45.00;35.33;;;;;14.96;36.14;102660.28;5055862;28;45406;-75
2022/01/24 10:54:52;;;;;;;;;42.00;33.33;;;;;14.86;36.15;102665.22;5076373;27;45440;-80
2022/01/24 10:57:27;;;;;;;;;42.33;33.00;;;;;14.68;37.07;102664.75;5082675;28;45532;-80
2022/01/24 11:00:20;;;;;;;;;38.00;34.67;;;;;14.34;36.98;102655.94;5068684;28;46956;-80
2022/01/24 11:02:49;;;;;;;;;37.67;32.67;;;;;14.10;37.68;102663.38;5085083;28;45381;-81
2022/01/24 11:05:20;;;;;;;;;41.67;32.67;;;;;13.83;37.85;102670.31;5060023;28;45474;-76
2022/01/24 11:07:58;;;;;;;;;41.67;33.00;;;;;13.59;37.93;102663.91;5075113;28;45715;-75
2022/01/24 11:10:33;;;;;;;;;40.33;32.33;;;;;13.37;38.45;102657.31;5074648;28;47003;-74
2022/01/24 11:12:59;;;;;;;;;46.00;32.67;;;;;13.14;39.90;102664.63;5075624;28;45434;-76
2022/01/24 11:15:25;;;;;;;;;39.33;32.67;;;;;12.94;39.72;102647.69;5075620;28;45465;-76
2022/01/24 11:17:55;;;;;;;;;38.00;33.00;;;;;12.71;40.16;102651.19;5075581;28;45457;-75
2022/01/24 11:20:28;;;;;;;;;40.00;33.33;;;;;12.50;40.33;102651.72;5081100;28;45366;-82
2022/01/24 11:23:09;;;;;;;;;38.00;32.00;;;;;12.27;40.85;102637.84;5084961;28;45228;-78
2022/01/24 11:25:42;;;;;;;;;37.25;32.00;;;;;12.12;41.21;102641.28;5067117;28;45399;-81
2022/01/24 11:28:08;;;;;;;;;35.00;30.75;;;;;11.98;41.47;102650.25;5064828;28;46574;-81
2022/01/24 11:30:56;;;;;;;;;37.75;30.75;;;;;11.81;41.31;102641.94;5080189;28;46116;-81
2022/01/24 11:33:36;;;;;;;;;34.67;31.00;;;;;11.63;42.04;102633.84;5064159;28;45415;-80
2022/01/24 11:36:04;;;;;;;;;36.00;32.00;;;;;11.43;42.30;102627.78;5059155;28;45846;-79
2022/01/24 11:38:37;;;;;;;;;40.00;30.67;;;;;11.37;42.72;102642.19;5080877;28;45742;-80
2022/01/24 11:41:22;;;;;;;;;44.33;33.33;;;;;11.22;43.24;102630.16;5081073;28;46217;-80
2022/01/24 11:43:51;;;;;;;;;41.33;32.00;;;;;11.05;43.23;102621.84;5081781;28;45338;-80
2022/01/24 11:46:59;;;;;;;;;35.00;30.67;;;;;10.83;43.29;102626.03;5079937;28;45394;-80
2022/01/24 11:49:25;;;;;;;;;34.67;30.33;;;;;10.71;44.13;102630.09;5063274;28;47192;-81
2022/01/24 11:52:15;;;;;;;;;37.50;31.50;;;;;10.56;43.91;102625.22;5056043;28;47583;-79
2022/01/24 11:57:17;;;;;;;;;35.00;29.67;;;;;10.32;44.65;102630.53;5060853;28;45507;-79
2022/01/24 11:59:44;;;;;;;;;36.33;31.33;;;;;10.26;45.10;102626.53;5061484;28;45347;-80
2022/01/24 12:02:12;;;;;;;;;41.75;32.75;;;;;10.19;45.28;102625.44;5063151;28;45462;-79
2022/01/24 12:04:53;;;;;;;;;36.75;33.75;;;;;10.04;45.54;102627.91;5069973;28;45544;-78
2022/01/24 12:07:28;;;;;;;;;40.67;32.33;;;;;10.08;46.32;102630.16;5060327;28;45386;-78
2022/01/24 12:10:15;;;;;;;;;41.00;34.00;;;;;10.02;45.68;102619.84;5080877;28;45509;-80
2022/01/24 12:12:43;;;;;;;;;46.50;33.25;;;;;9.98;45.86;102625.81;5081289;27;46526;-81
2022/01/24 12:15:10;;;;;;;;;38.00;33.25;;;;;9.90;46.51;102630.19;5079169;28;45447;-79
2022/01/24 12:17:50;;;;;;;;;35.75;31.75;;;;;9.86;46.32;102634.25;5079121;28;46048;-79
2022/01/24 12:20:31;;;;;;;;;32.75;31.00;;;;;9.87;47.11;102629.66;5071099;28;45406;-80
2022/01/24 12:23:19;;;;;;;;;32.00;28.67;;;;;9.85;47.03;102620.72;5077338;28;45419;-80
2022/01/24 12:25:49;;;;;;;;;36.25;29.75;;;;;9.88;46.86;102617.69;5051409;28;45438;-81
2022/01/24 12:28:26;;;;;;;;;38.50;31.75;;;;;9.89;46.80;102622.13;5080495;28;45476;-78
2022/01/24 12:31:03;;;;;;;;;33.00;29.33;;;;;9.94;46.80;102619.78;5070266;28;45389;-79
2022/01/24 12:34:00;;;;;;;;;35.00;30.00;;;;;9.93;46.73;102617.19;5062184;28;47454;-80
2022/01/24 12:36:59;;;;;;;;;32.67;29.33;;;;;9.90;47.14;102607.41;5055466;28;45646;-79
2022/01/24 12:39:32;;;;;;;;;34.00;30.25;;;;;9.91;47.06;102617.38;5074157;28;45588;-79
2022/01/24 12:42:01;;;;;;;;;35.67;29.67;;;;;9.81;47.08;102614.69;5086912;28;45397;-78
2022/01/24 12:47:08;;;;;;;;;32.67;28.33;;;;;9.78;47.49;102611.41;5083571;28;45461;-79
2022/01/24 12:49:34;;;;;;;;;34.75;31.50;;;;;9.77;47.37;102606.94;5083370;28;45481;-75
2022/01/24 12:52:03;;;;;;;;;37.25;32.00;;;;;9.70;47.21;102610.31;5085032;28;45460;-78
2022/01/24 12:54:30;;;;;;;;;37.00;31.75;;;;;9.65;47.30;102604.44;5083113;28;46353;-80
2022/01/24 12:57:05;;;;;;;;;36.75;32.50;;;;;9.63;47.36;102600.16;5083180;28;45341;-78
2022/01/24 12:59:31;;;;;;;;;39.00;32.00;;;;;9.63;47.32;102600.16;5085583;28;45505;-80
2022/01/24 13:02:00;;;;;;;;;47.25;33.25;;;;;9.59;47.62;102598.75;5083582;28;45428;-79
2022/01/24 13:04:40;;;;;;;;;36.75;31.75;;;;;9.55;47.69;102606.44;5082576;28;46106;-78
2022/01/24 13:07:07;;;;;;;;;45.00;37.00;;;;;9.56;48.19;102610.88;5071319;28;45375;-80
2022/01/24 13:09:34;;;;;;;;;45.75;33.50;;;;;9.52;47.98;102602.09;5084975;28;45750;-82
2022/01/24 13:12:05;;;;;;;;;39.00;33.50;;;;;9.56;47.88;102596.31;5082592;28;45346;-80
2022/01/24 13:25:23;;;;;;;;;34.75;31.75;;;;;9.50;48.35;102575.88;5085428;28;45303;-79
2022/01/24 13:27:51;;;;;;;;;39.75;33.25;;;;;9.45;48.29;102573.63;5084943;28;45601;-80
2022/01/24 13:31:00;;;;;;;;;34.75;32.75;;;;;9.54;48.32;102588.25;5077852;28;45365;-81